Terminal Aerodrome Forecast
Issued by NWS

Home | Current Version | Previous Version | Text Only | Print | Product List | Glossary Off
Versions: 1 2 3 4 5 6 7 8 9 10 11 12 13 14 15 16 17 18 19 20 21 22 23 24 25 26 27 28 29 30 31 32 33 34

000
FTUS43 KGRB 081137
TAFRHI
TAF
KRHI 081137Z 0812/0912 27006KT 6SM -SN SCT010 BKN025
      TEMPO 0812/0815 2SM -SN BKN015
     FM081500 30012KT 2SM -SN BR OVC015
     FM081900 30012G16KT 1 1/2SM -SN OVC010
     FM090000 34012KT 4SM -SN BR OVC011=

USA.gov is the U.S. government's official web portal to all federal, state and local government web resources and services.